Medimont, Idaho
Current Conditions -  °F | °C
As of 5:15 AM on Thursday 30 Oct 2014 (Local Time) from KCOE Reporting Station
Broken Clouds Broken Clouds  
Wind Chill: 40°   Ceiling: 9500
Heat Index: 46°   Visibility: 10mi
Dew Point: 43°   Wind: 14mph
Humidity: 87%   Direction: 30°NNE
Pressure: 30.16"   Gusts: NA
Location:  47.48°N, 116.6°W
Report Text: KCOE 301215Z AUTO 03012KT 10SM SCT006 BKN095 BKN120 08/06 A3016 RMK AO1
Loading
Personal Weather Stations






























Interactive Weather Map
Tropical Storm Tracking
New forecast layout! Learn more

10-Day Weather Forecast

Advertisements
Track Severe Weather on mobile